createdAt,value
2022-12-03T00:00:00.881Z,35.10
2022-12-03T00:01:00.584Z,33.35
2022-12-03T00:02:00.826Z,34.46
2022-12-03T00:03:01.599Z,35.94
2022-12-03T00:04:00.843Z,35.37
2022-12-03T00:05:00.950Z,32.55
2022-12-03T00:06:00.507Z,32.91
2022-12-03T00:07:00.869Z,34.51
2022-12-03T00:08:00.560Z,39.29
2022-12-03T00:09:01.455Z,36.76
2022-12-03T00:10:00.785Z,36.15
2022-12-03T00:11:00.514Z,36.99
2022-12-03T00:12:00.492Z,35.76
2022-12-03T00:13:00.730Z,34.06
2022-12-03T00:14:00.473Z,34.84
2022-12-03T00:15:00.888Z,33.92
2022-12-03T00:16:00.809Z,35.26
2022-12-03T00:17:00.480Z,33.67
2022-12-03T00:18:01.574Z,35.17
2022-12-03T00:19:00.522Z,35.90
2022-12-03T00:20:01.580Z,34.42
2022-12-03T00:21:00.841Z,36.76
2022-12-03T00:22:01.620Z,31.88
2022-12-03T00:23:00.760Z,36.02
2022-12-03T00:24:01.486Z,35.35
2022-12-03T00:25:00.582Z,32.20
2022-12-03T00:26:01.705Z,33.69
2022-12-03T00:27:00.435Z,36.93
2022-12-03T00:28:01.224Z,33.76
2022-12-03T00:29:00.741Z,34.59
2022-12-03T00:30:01.816Z,34.90
2022-12-03T00:31:00.537Z,32.27
2022-12-03T00:32:01.633Z,34.94
2022-12-03T00:33:00.497Z,32.76
2022-12-03T00:34:00.841Z,33.57
2022-12-03T00:35:00.469Z,34.19
2022-12-03T00:36:00.482Z,34.18
2022-12-03T00:37:00.528Z,34.37
2022-12-03T00:38:00.521Z,31.79
2022-12-03T00:39:01.539Z,33.70
2022-12-03T00:40:02.609Z,33.89
2022-12-03T00:41:00.886Z,33.50
2022-12-03T00:42:00.470Z,32.14
2022-12-03T00:43:00.426Z,31.28
2022-12-03T00:44:00.482Z,33.12
2022-12-03T00:45:01.025Z,34.80
2022-12-03T00:46:00.806Z,32.64
2022-12-03T00:47:01.669Z,33.57
2022-12-03T00:48:00.532Z,33.62
2022-12-03T00:49:01.545Z,32.80
2022-12-03T00:50:01.990Z,31.25
2022-12-03T00:51:03.142Z,36.18
2022-12-03T00:52:02.631Z,31.65
2022-12-03T00:53:02.468Z,33.37
2022-12-03T00:54:02.180Z,32.19
2022-12-03T00:55:01.075Z,31.59
2022-12-03T00:56:01.644Z,32.25
2022-12-03T00:57:01.239Z,32.89
2022-12-03T00:58:01.892Z,33.97
2022-12-03T00:59:01.517Z,31.62
2022-12-03T01:00:06.713Z,32.10
2022-12-03T01:01:02.668Z,35.81
2022-12-03T01:02:01.523Z,33.29
2022-12-03T01:03:00.580Z,33.62
2022-12-03T01:04:00.360Z,33.57
2022-12-03T01:05:01.102Z,32.48
2022-12-03T01:06:01.760Z,32.54
2022-12-03T01:07:00.805Z,31.48
2022-12-03T01:08:02.137Z,31.89
2022-12-03T01:09:01.132Z,31.42
2022-12-03T01:10:04.327Z,32.58
2022-12-03T01:12:01.636Z,33.84
2022-12-03T01:13:02.948Z,32.90
2022-12-03T01:14:00.893Z,33.36
2022-12-03T01:15:00.869Z,33.91
2022-12-03T01:16:01.499Z,31.70
2022-12-03T01:17:00.797Z,32.24
2022-12-03T01:18:01.976Z,32.20
2022-12-03T01:19:00.431Z,31.93
2022-12-03T01:20:00.483Z,31.42
2022-12-03T01:21:02.235Z,31.42
2022-12-03T01:23:00.471Z,31.23
2022-12-03T01:24:00.947Z,31.91
2022-12-03T01:25:00.572Z,31.05
2022-12-03T01:26:01.576Z,34.34
2022-12-03T01:27:02.560Z,31.89
2022-12-03T01:29:01.125Z,30.90
2022-12-03T01:30:02.507Z,31.22
2022-12-03T01:31:01.199Z,35.34
2022-12-03T01:32:01.055Z,33.24
2022-12-03T01:33:02.727Z,34.21
2022-12-03T01:34:02.964Z,33.64
2022-12-03T01:35:02.363Z,33.31
2022-12-03T01:36:00.423Z,32.04
2022-12-03T01:37:00.514Z,32.57
2022-12-03T01:39:01.482Z,31.08
2022-12-03T01:40:00.723Z,33.77
2022-12-03T01:41:03.221Z,30.92
2022-12-03T01:42:00.456Z,32.00
2022-12-03T01:43:01.682Z,39.22
2022-12-03T01:44:02.285Z,29.67
2022-12-03T01:46:00.622Z,30.92
2022-12-03T01:47:01.178Z,29.42
2022-12-03T01:48:01.968Z,30.86
2022-12-03T01:49:01.863Z,32.74
2022-12-03T01:50:00.451Z,32.50
2022-12-03T01:51:01.487Z,30.22
2022-12-03T01:52:01.461Z,31.93
2022-12-03T01:53:01.484Z,31.82
2022-12-03T01:54:00.916Z,31.65
2022-12-03T01:55:00.490Z,31.55
2022-12-03T01:56:01.173Z,31.10
2022-12-03T01:57:00.477Z,32.34
2022-12-03T01:58:01.552Z,31.03
2022-12-03T01:59:00.615Z,29.50
2022-12-03T02:00:01.577Z,30.57
2022-12-03T02:01:01.327Z,30.72
2022-12-03T02:02:00.917Z,30.15
2022-12-03T02:03:00.639Z,31.05
2022-12-03T02:04:00.539Z,33.15
2022-12-03T02:05:03.117Z,32.19
2022-12-03T02:06:01.617Z,38.80
2022-12-03T02:07:01.166Z,31.58
2022-12-03T02:08:00.900Z,32.56
2022-12-03T02:09:00.641Z,32.22
2022-12-03T02:10:01.422Z,33.10
2022-12-03T02:11:01.204Z,33.30
2022-12-03T02:12:00.675Z,32.33
2022-12-03T02:13:00.509Z,32.86
2022-12-03T02:14:01.780Z,31.33
2022-12-03T02:15:00.491Z,39.70
2022-12-03T02:16:01.635Z,31.21
2022-12-03T02:17:00.860Z,34.15
2022-12-03T02:18:01.036Z,33.02
2022-12-03T02:19:00.971Z,33.31
2022-12-03T02:20:01.069Z,33.91
2022-12-03T02:21:01.232Z,31.00
2022-12-03T02:23:01.745Z,33.52
2022-12-03T02:24:00.481Z,31.73
2022-12-03T02:25:00.622Z,32.02
2022-12-03T02:26:00.619Z,31.58
2022-12-03T02:27:01.538Z,32.87
2022-12-03T02:28:00.803Z,32.39
2022-12-03T02:29:00.508Z,31.86
2022-12-03T02:30:00.459Z,32.67
2022-12-03T02:31:01.853Z,31.70
2022-12-03T02:34:00.794Z,33.70
2022-12-03T02:35:01.079Z,31.44
2022-12-03T02:36:03.905Z,53.12
2022-12-03T02:37:01.035Z,31.86
2022-12-03T02:38:00.843Z,32.78
2022-12-03T02:39:04.840Z,35.28
2022-12-03T02:42:00.535Z,34.40
2022-12-03T02:43:01.644Z,35.19
2022-12-03T02:44:00.449Z,35.33
2022-12-03T02:45:05.119Z,33.33
2022-12-03T02:46:00.449Z,31.10
2022-12-03T02:47:01.556Z,30.64
2022-12-03T02:48:00.501Z,32.61
2022-12-03T02:49:00.464Z,33.53
2022-12-03T02:50:01.650Z,34.87
2022-12-03T02:51:00.511Z,30.34
2022-12-03T02:52:00.481Z,32.19
2022-12-03T02:53:00.636Z,31.36
2022-12-03T02:54:01.594Z,33.09
2022-12-03T02:55:00.608Z,32.63
2022-12-03T02:56:01.120Z,30.63
2022-12-03T02:57:00.438Z,30.77
2022-12-03T02:58:01.778Z,30.78
2022-12-03T02:59:01.566Z,31.08
2022-12-03T03:00:01.004Z,31.88
2022-12-03T03:01:00.691Z,35.16
2022-12-03T03:02:01.738Z,36.54
2022-12-03T03:03:00.508Z,31.78
2022-12-03T03:04:00.581Z,32.62
2022-12-03T03:05:00.855Z,32.72
2022-12-03T03:06:01.650Z,31.67
2022-12-03T03:07:00.371Z,31.34
2022-12-03T03:08:01.524Z,29.99
2022-12-03T03:09:00.483Z,30.17
2022-12-03T03:10:00.597Z,30.98
2022-12-03T03:11:01.308Z,31.72
2022-12-03T03:12:01.584Z,31.46
2022-12-03T03:13:00.563Z,33.25
2022-12-03T03:14:00.770Z,33.03
2022-12-03T03:15:01.789Z,33.18
2022-12-03T03:16:00.581Z,30.06
2022-12-03T03:17:00.555Z,33.06
2022-12-03T03:18:00.549Z,31.38
2022-12-03T03:19:00.634Z,31.08
2022-12-03T03:21:01.684Z,30.25
2022-12-03T03:22:00.496Z,31.68
2022-12-03T03:23:01.092Z,31.81
2022-12-03T03:24:00.527Z,33.80
2022-12-03T03:25:01.367Z,32.07
2022-12-03T03:26:02.051Z,32.01
2022-12-03T03:27:01.599Z,32.96
2022-12-03T03:28:00.557Z,32.15
2022-12-03T03:29:01.568Z,33.22
2022-12-03T03:30:00.463Z,30.32
2022-12-03T03:31:01.580Z,35.00
2022-12-03T03:32:00.877Z,30.98
2022-12-03T03:33:00.631Z,32.60
2022-12-03T03:34:00.734Z,33.54
2022-12-03T03:35:00.563Z,32.77
2022-12-03T03:36:01.069Z,35.48
2022-12-03T03:37:00.641Z,32.78
2022-12-03T03:39:01.014Z,32.96
2022-12-03T03:40:00.755Z,34.49
2022-12-03T03:41:00.620Z,33.73
2022-12-03T03:42:01.926Z,35.59
2022-12-03T03:43:00.648Z,35.90
2022-12-03T03:44:01.697Z,35.90
2022-12-03T03:45:01.652Z,36.78
2022-12-03T03:46:01.892Z,33.14
2022-12-03T03:47:01.219Z,33.56
2022-12-03T03:48:01.820Z,29.86
2022-12-03T03:50:03.104Z,35.28
2022-12-03T03:51:00.457Z,34.25
2022-12-03T03:52:01.583Z,33.80
2022-12-03T03:53:00.517Z,33.00
2022-12-03T03:54:01.124Z,34.69
2022-12-03T03:55:00.657Z,32.99
2022-12-03T03:56:01.201Z,33.19
2022-12-03T03:57:00.549Z,34.78
2022-12-03T03:58:01.501Z,31.86
2022-12-03T03:59:00.496Z,33.59
2022-12-03T04:00:02.651Z,33.52
2022-12-03T04:01:00.575Z,33.13
2022-12-03T04:02:01.771Z,32.20
2022-12-03T04:03:01.735Z,31.48
2022-12-03T04:04:00.606Z,33.45
2022-12-03T04:05:01.228Z,31.44
2022-12-03T04:06:00.479Z,33.42
2022-12-03T04:07:01.650Z,33.63
2022-12-03T04:08:00.826Z,32.45
2022-12-03T04:09:00.512Z,31.79
2022-12-03T04:10:00.603Z,33.55
2022-12-03T04:11:00.616Z,31.24
2022-12-03T04:12:00.671Z,31.84
2022-12-03T04:13:00.534Z,34.46
2022-12-03T04:14:00.560Z,32.86
2022-12-03T04:15:00.689Z,31.68
2022-12-03T04:16:00.533Z,34.36
2022-12-03T04:17:01.586Z,33.67
2022-12-03T04:18:00.511Z,36.03
2022-12-03T04:19:00.629Z,31.90
2022-12-03T04:20:01.668Z,34.33
2022-12-03T04:21:01.772Z,33.88
2022-12-03T04:22:00.633Z,33.41
2022-12-03T04:23:01.661Z,32.01
2022-12-03T04:24:00.423Z,32.14
2022-12-03T04:25:01.565Z,34.08
2022-12-03T04:26:01.654Z,34.35
2022-12-03T04:27:01.584Z,33.82
2022-12-03T04:28:00.449Z,33.37
2022-12-03T04:29:00.840Z,35.18
2022-12-03T04:30:00.550Z,35.77
2022-12-03T04:31:00.509Z,33.73
2022-12-03T04:32:00.581Z,33.53
2022-12-03T04:33:00.659Z,34.39
2022-12-03T04:34:00.415Z,35.21
2022-12-03T04:35:00.514Z,32.40
2022-12-03T04:36:00.751Z,34.38
2022-12-03T04:37:00.782Z,33.32
2022-12-03T04:38:01.653Z,34.07
2022-12-03T04:39:00.492Z,32.57
2022-12-03T04:40:01.863Z,32.92
2022-12-03T04:41:00.469Z,34.53
2022-12-03T04:42:00.451Z,30.93
2022-12-03T04:43:00.978Z,34.82
2022-12-03T04:44:01.593Z,35.30
2022-12-03T04:45:00.547Z,34.02
2022-12-03T04:46:01.204Z,36.25
2022-12-03T04:47:00.406Z,32.80
2022-12-03T04:48:01.554Z,31.98
2022-12-03T04:49:00.517Z,34.05
2022-12-03T04:50:01.512Z,32.55
2022-12-03T04:51:00.633Z,32.33
2022-12-03T04:52:00.854Z,32.57
2022-12-03T04:53:00.616Z,33.86
2022-12-03T04:54:01.509Z,31.12
2022-12-03T04:55:00.577Z,30.36
2022-12-03T04:56:00.579Z,33.92
2022-12-03T04:57:00.583Z,34.90
2022-12-03T04:58:00.456Z,30.79
2022-12-03T04:59:01.377Z,32.11
2022-12-03T05:00:00.713Z,33.81
2022-12-03T05:01:01.150Z,35.80
2022-12-03T05:02:00.660Z,33.58
2022-12-03T05:03:01.080Z,31.08
2022-12-03T05:04:00.466Z,33.11
2022-12-03T05:05:00.572Z,34.87
2022-12-03T05:06:00.861Z,33.88
2022-12-03T05:07:00.520Z,29.85
2022-12-03T05:08:00.541Z,32.40
2022-12-03T05:09:00.750Z,31.83
2022-12-03T05:10:00.507Z,30.08
2022-12-03T05:11:00.547Z,32.11
2022-12-03T05:12:00.554Z,32.33
2022-12-03T05:13:01.067Z,32.22
2022-12-03T05:14:00.456Z,32.95
2022-12-03T05:15:01.581Z,31.92
2022-12-03T05:16:00.516Z,30.26
2022-12-03T05:17:01.672Z,31.50
2022-12-03T05:18:00.798Z,32.26
2022-12-03T05:19:00.941Z,32.67
2022-12-03T05:20:00.495Z,32.44
2022-12-03T05:21:00.914Z,30.27
2022-12-03T05:22:00.608Z,31.36
2022-12-03T05:23:01.604Z,31.59
2022-12-03T05:24:00.589Z,32.97
2022-12-03T05:25:00.607Z,30.96
2022-12-03T05:26:00.466Z,31.89
2022-12-03T05:27:00.548Z,32.65
2022-12-03T05:28:01.861Z,33.76
2022-12-03T05:29:00.486Z,31.41
2022-12-03T05:30:01.773Z,32.27
2022-12-03T05:31:00.928Z,30.92
2022-12-03T05:32:01.362Z,31.10
2022-12-03T05:33:01.098Z,31.54
2022-12-03T05:34:01.469Z,32.50
2022-12-03T05:35:00.615Z,32.27
2022-12-03T05:36:01.937Z,34.59
2022-12-03T05:37:00.997Z,33.85
2022-12-03T05:38:01.602Z,32.66
2022-12-03T05:39:00.859Z,33.46
2022-12-03T05:40:00.936Z,34.64
2022-12-03T05:41:00.902Z,31.29
2022-12-03T05:42:01.530Z,34.22
2022-12-03T05:43:00.696Z,31.88
2022-12-03T05:44:01.472Z,32.70
2022-12-03T05:45:00.514Z,31.16
2022-12-03T05:46:01.599Z,35.89
2022-12-03T05:47:00.478Z,33.47
2022-12-03T05:48:01.529Z,33.77
2022-12-03T05:49:00.536Z,31.25
2022-12-03T05:50:01.553Z,30.38
2022-12-03T05:51:00.449Z,32.56
2022-12-03T05:52:00.528Z,32.93
2022-12-03T05:53:00.505Z,31.65
2022-12-03T05:54:00.692Z,34.59
2022-12-03T05:55:00.628Z,33.98
2022-12-03T05:56:00.485Z,38.01
2022-12-03T05:57:01.223Z,35.64
2022-12-03T05:58:00.958Z,36.90
2022-12-03T05:59:01.575Z,34.46
2022-12-03T06:00:02.957Z,36.39
2022-12-03T06:01:01.576Z,33.89
2022-12-03T06:02:00.667Z,32.85
2022-12-03T06:03:02.333Z,31.48
2022-12-03T06:04:00.555Z,31.94
2022-12-03T06:05:00.576Z,33.59
2022-12-03T06:06:00.415Z,32.73
2022-12-03T06:07:01.318Z,35.45
2022-12-03T06:08:01.880Z,38.79
2022-12-03T06:09:00.413Z,34.81
2022-12-03T06:10:00.504Z,31.64
2022-12-03T06:11:00.451Z,34.35
2022-12-03T06:12:00.412Z,31.99
2022-12-03T06:13:00.819Z,37.26
2022-12-03T06:14:00.472Z,31.82
2022-12-03T06:15:01.056Z,31.96
2022-12-03T06:16:00.542Z,33.41
2022-12-03T06:17:00.485Z,36.31
2022-12-03T06:18:00.919Z,33.43
2022-12-03T06:19:00.444Z,33.81
2022-12-03T06:20:01.540Z,33.32
2022-12-03T06:21:00.561Z,33.48
2022-12-03T06:22:01.943Z,32.18
2022-12-03T06:23:00.510Z,38.05
2022-12-03T06:24:00.506Z,32.06
2022-12-03T06:25:06.182Z,32.51
2022-12-03T06:27:00.953Z,31.32
2022-12-03T06:28:01.509Z,32.30
2022-12-03T06:29:00.631Z,31.30
2022-12-03T06:30:00.763Z,32.48
2022-12-03T06:31:00.545Z,33.09
2022-12-03T06:32:00.541Z,30.86
2022-12-03T06:33:00.557Z,32.51
2022-12-03T06:34:00.434Z,33.04
2022-12-03T06:35:00.602Z,33.92
2022-12-03T06:36:01.080Z,33.02
2022-12-03T06:37:00.601Z,31.68
2022-12-03T06:38:00.504Z,42.74
2022-12-03T06:40:01.047Z,38.02
2022-12-03T06:41:01.132Z,34.26
2022-12-03T06:42:00.627Z,33.00
2022-12-03T06:43:00.980Z,31.60
2022-12-03T06:44:00.471Z,33.12
2022-12-03T06:45:02.206Z,33.80
2022-12-03T06:46:00.568Z,32.83
2022-12-03T06:47:00.996Z,36.31
2022-12-03T06:48:00.674Z,32.98
2022-12-03T06:49:00.548Z,38.03
2022-12-03T06:50:00.550Z,34.93
2022-12-03T06:51:01.309Z,33.44
2022-12-03T06:52:00.463Z,33.34
2022-12-03T06:53:00.470Z,29.98
2022-12-03T06:54:00.464Z,28.77
2022-12-03T06:55:00.481Z,28.46
2022-12-03T06:56:00.469Z,29.12
2022-12-03T06:57:00.803Z,26.64
2022-12-03T06:58:00.472Z,26.04
2022-12-03T06:59:00.952Z,25.93
2022-12-03T07:00:01.013Z,27.25
2022-12-03T07:01:01.623Z,26.44
2022-12-03T07:02:00.711Z,27.07
2022-12-03T07:04:00.553Z,26.53
2022-12-03T07:05:01.598Z,26.85
2022-12-03T07:06:00.506Z,29.54
2022-12-03T07:07:00.705Z,29.39
2022-12-03T07:08:00.537Z,28.21
2022-12-03T07:09:00.627Z,29.23
2022-12-03T07:10:00.937Z,27.88
2022-12-03T07:11:00.455Z,26.67
2022-12-03T07:12:00.421Z,27.68
2022-12-03T07:13:00.528Z,26.33
2022-12-03T07:14:05.598Z,24.93
2022-12-03T07:15:00.637Z,27.46
2022-12-03T07:16:00.568Z,26.47
2022-12-03T07:17:00.568Z,28.16
2022-12-03T07:18:01.923Z,28.38
2022-12-03T07:19:00.417Z,29.05
2022-12-03T07:20:01.625Z,27.16
2022-12-03T07:21:00.507Z,31.55
2022-12-03T07:22:00.889Z,35.81
2022-12-03T07:23:00.636Z,28.99
2022-12-03T07:24:00.966Z,26.85
2022-12-03T07:25:00.537Z,25.77
2022-12-03T07:26:01.816Z,26.11
2022-12-03T07:27:00.459Z,25.17
2022-12-03T07:28:00.875Z,26.92
2022-12-03T07:29:00.527Z,25.57
2022-12-03T07:30:01.603Z,27.25
2022-12-03T07:31:00.598Z,25.18
2022-12-03T07:32:00.456Z,22.97
2022-12-03T07:33:00.569Z,23.34
2022-12-03T07:34:00.465Z,22.65
2022-12-03T07:35:00.657Z,23.36
2022-12-03T07:36:00.427Z,20.89
2022-12-03T07:37:02.271Z,19.67
2022-12-03T07:38:00.788Z,21.70
2022-12-03T07:39:00.452Z,20.44
2022-12-03T07:40:00.588Z,17.87
2022-12-03T07:41:00.492Z,19.20
2022-12-03T07:42:00.731Z,18.39
2022-12-03T07:43:00.510Z,17.48
2022-12-03T07:44:00.465Z,19.31
2022-12-03T07:45:00.565Z,19.04
2022-12-03T07:46:00.514Z,19.09
2022-12-03T07:47:00.775Z,18.43
2022-12-03T07:48:00.544Z,18.64
2022-12-03T07:49:00.701Z,17.14
2022-12-03T07:50:00.584Z,17.10
2022-12-03T07:51:01.634Z,16.51
2022-12-03T07:52:00.590Z,17.39
2022-12-03T07:53:00.742Z,16.69
2022-12-03T07:54:00.539Z,15.93
2022-12-03T07:55:01.836Z,15.99
2022-12-03T07:56:02.413Z,16.66
2022-12-03T07:57:01.834Z,14.75
2022-12-03T07:58:00.455Z,15.94
2022-12-03T07:59:00.637Z,16.06
2022-12-03T08:00:01.971Z,15.86
2022-12-03T08:01:01.053Z,16.39
2022-12-03T08:02:00.682Z,16.35
2022-12-03T08:03:00.503Z,16.96
2022-12-03T08:04:00.544Z,19.75
2022-12-03T08:05:00.594Z,16.15
2022-12-03T08:06:01.635Z,16.74
2022-12-03T08:07:00.430Z,17.45
2022-12-03T08:08:01.571Z,19.30
2022-12-03T08:09:00.543Z,17.85
2022-12-03T08:10:01.049Z,16.88
2022-12-03T08:11:00.582Z,14.51
2022-12-03T08:12:00.479Z,15.01
2022-12-03T08:13:00.491Z,16.66
2022-12-03T08:14:01.495Z,16.61
2022-12-03T08:15:00.643Z,13.82
2022-12-03T08:16:00.467Z,13.54
2022-12-03T08:17:00.420Z,13.47
2022-12-03T08:18:01.451Z,13.53
2022-12-03T08:19:00.494Z,14.00
2022-12-03T08:20:01.682Z,13.22
2022-12-03T08:21:00.464Z,13.49
2022-12-03T08:22:01.775Z,14.19
2022-12-03T08:23:00.547Z,15.06
2022-12-03T08:24:00.501Z,14.47
2022-12-03T08:25:00.582Z,14.06
2022-12-03T08:26:00.652Z,14.00
2022-12-03T08:27:00.434Z,14.24
2022-12-03T08:28:01.610Z,14.76
2022-12-03T08:29:01.586Z,12.95
2022-12-03T08:30:00.579Z,14.22
2022-12-03T08:31:00.703Z,16.33
2022-12-03T08:32:00.557Z,16.38
2022-12-03T08:33:00.499Z,16.26
2022-12-03T08:34:00.484Z,14.15
2022-12-03T08:35:01.644Z,15.47
2022-12-03T08:36:00.502Z,15.61
2022-12-03T08:37:02.085Z,16.21
2022-12-03T08:39:01.454Z,15.86
2022-12-03T08:40:00.637Z,15.40
2022-12-03T08:41:01.124Z,14.31
2022-12-03T08:42:01.286Z,13.58
2022-12-03T08:43:01.444Z,15.20
2022-12-03T08:44:00.469Z,14.62
2022-12-03T08:45:01.464Z,13.83
2022-12-03T08:46:01.684Z,13.67
2022-12-03T08:47:00.739Z,14.76
2022-12-03T08:48:00.450Z,14.45
2022-12-03T08:49:00.433Z,14.06
2022-12-03T08:50:00.513Z,14.30
2022-12-03T08:51:01.131Z,13.71
2022-12-03T08:52:01.448Z,13.65
2022-12-03T08:53:00.822Z,14.25
2022-12-03T08:54:01.933Z,13.92
2022-12-03T08:55:00.602Z,14.78
2022-12-03T08:56:01.300Z,18.72
2022-12-03T08:57:00.539Z,19.43
2022-12-03T08:58:01.145Z,20.57
2022-12-03T08:59:00.446Z,21.23
2022-12-03T09:00:01.966Z,21.21
2022-12-03T09:01:01.692Z,20.09
2022-12-03T09:02:01.434Z,23.09
2022-12-03T09:03:00.518Z,22.76
2022-12-03T09:04:00.571Z,23.15
2022-12-03T09:05:00.498Z,21.83
2022-12-03T09:06:01.528Z,22.88
2022-12-03T09:07:00.589Z,21.81
2022-12-03T09:08:00.937Z,23.96
2022-12-03T09:09:05.276Z,23.74
2022-12-03T09:10:00.577Z,22.35
2022-12-03T09:11:00.658Z,24.09
2022-12-03T09:12:01.618Z,23.87
2022-12-03T09:13:00.713Z,24.33
2022-12-03T09:14:00.450Z,25.30
2022-12-03T09:15:00.829Z,25.69
2022-12-03T09:16:00.473Z,25.40
2022-12-03T09:17:00.554Z,26.51
2022-12-03T09:18:00.476Z,27.96
2022-12-03T09:19:00.472Z,26.84
2022-12-03T09:20:00.485Z,27.47
2022-12-03T09:21:00.534Z,27.98
2022-12-03T09:22:00.514Z,27.78
2022-12-03T09:23:00.500Z,27.97
2022-12-03T09:24:00.820Z,29.12
2022-12-03T09:25:02.240Z,28.76
2022-12-03T09:26:00.583Z,27.63
2022-12-03T09:27:00.498Z,29.53
2022-12-03T09:28:00.504Z,27.04
2022-12-03T09:29:01.530Z,27.62
2022-12-03T09:30:00.638Z,31.46
2022-12-03T09:31:02.043Z,28.03
2022-12-03T09:32:00.600Z,28.44
2022-12-03T09:33:00.491Z,27.47
2022-12-03T09:34:00.421Z,29.70
2022-12-03T09:36:00.502Z,31.15
2022-12-03T09:37:01.086Z,29.44
2022-12-03T09:38:00.508Z,27.71
2022-12-03T09:39:00.682Z,31.77
2022-12-03T09:40:00.514Z,29.93
2022-12-03T09:41:00.464Z,30.37
2022-12-03T09:42:01.947Z,30.80
2022-12-03T09:43:03.557Z,30.78
2022-12-03T09:44:04.863Z,28.53
2022-12-03T09:45:00.474Z,29.42
2022-12-03T09:46:00.787Z,26.29
2022-12-03T09:47:00.447Z,27.77
2022-12-03T09:48:00.439Z,27.27
2022-12-03T09:49:00.446Z,27.73
2022-12-03T09:50:01.457Z,27.36
2022-12-03T09:51:00.519Z,26.95
2022-12-03T09:52:01.193Z,28.70
2022-12-03T09:53:00.519Z,29.39
2022-12-03T09:54:01.295Z,27.17
2022-12-03T09:55:00.495Z,26.80
2022-12-03T09:56:00.632Z,25.66
2022-12-03T09:57:00.719Z,26.72
2022-12-03T09:58:00.490Z,28.32
2022-12-03T09:59:00.479Z,23.81
2022-12-03T10:00:01.648Z,24.58
2022-12-03T10:01:01.613Z,25.67
2022-12-03T10:02:00.853Z,25.71
2022-12-03T10:03:00.523Z,25.61
2022-12-03T10:04:01.496Z,24.05
2022-12-03T10:05:00.602Z,26.68
2022-12-03T10:06:00.507Z,26.09
2022-12-03T10:07:00.439Z,25.77
2022-12-03T10:08:01.015Z,24.84
2022-12-03T10:09:00.656Z,27.75
2022-12-03T10:10:00.495Z,27.45
2022-12-03T10:11:01.303Z,26.65
2022-12-03T10:12:00.498Z,24.88
2022-12-03T10:13:01.710Z,25.63
2022-12-03T10:14:00.602Z,27.15
2022-12-03T10:15:00.770Z,26.52
2022-12-03T10:16:00.670Z,26.51
2022-12-03T10:17:00.608Z,25.75
2022-12-03T10:18:00.436Z,24.47
2022-12-03T10:19:03.877Z,26.09
2022-12-03T10:20:00.481Z,27.55
2022-12-03T10:21:01.171Z,26.16
2022-12-03T10:22:00.530Z,26.93
2022-12-03T10:23:01.749Z,28.34
2022-12-03T10:24:00.545Z,25.66
2022-12-03T10:25:00.481Z,29.00
2022-12-03T10:26:00.479Z,28.63
2022-12-03T10:27:00.522Z,26.64
2022-12-03T10:28:00.677Z,26.09
2022-12-03T10:29:01.864Z,26.07
2022-12-03T10:30:05.081Z,25.70
2022-12-03T10:31:01.603Z,23.70
2022-12-03T10:32:00.526Z,27.24
2022-12-03T10:33:00.677Z,26.42
2022-12-03T10:34:00.613Z,28.05
2022-12-03T10:35:00.862Z,26.74
2022-12-03T10:36:00.431Z,31.41
2022-12-03T10:37:00.789Z,28.35
2022-12-03T10:38:01.724Z,27.04
2022-12-03T10:39:00.529Z,31.27
2022-12-03T10:40:01.637Z,27.23
2022-12-03T10:41:00.801Z,26.88
2022-12-03T10:42:00.784Z,27.94
2022-12-03T10:43:00.456Z,27.16
2022-12-03T10:44:01.226Z,24.89
2022-12-03T10:45:00.725Z,26.02
2022-12-03T10:46:04.187Z,28.57
2022-12-03T10:47:00.805Z,26.10
2022-12-03T10:48:01.723Z,25.48
2022-12-03T10:49:00.568Z,26.44
2022-12-03T10:50:01.237Z,26.18
2022-12-03T10:51:00.572Z,24.13
2022-12-03T10:52:09.744Z,25.56
2022-12-03T10:53:00.476Z,25.97
2022-12-03T10:54:01.596Z,22.81
2022-12-03T10:55:05.695Z,23.82
2022-12-03T10:56:00.534Z,24.99
2022-12-03T10:57:00.530Z,26.17
2022-12-03T10:58:00.667Z,23.55
2022-12-03T10:59:00.579Z,24.84
2022-12-03T11:00:00.739Z,26.24
2022-12-03T11:01:01.750Z,23.85
2022-12-03T11:02:00.635Z,25.65
2022-12-03T11:04:00.836Z,46.32
2022-12-03T11:05:00.559Z,34.90
2022-12-03T11:06:00.517Z,31.62
2022-12-03T11:07:00.440Z,32.08
2022-12-03T11:08:00.786Z,35.70
2022-12-03T11:09:08.318Z,32.60
2022-12-03T11:10:00.514Z,33.99
2022-12-03T11:11:00.567Z,34.54
2022-12-03T11:12:00.459Z,34.40
2022-12-03T11:13:00.445Z,26.44
2022-12-03T11:14:00.638Z,27.98
2022-12-03T11:15:00.547Z,39.50
2022-12-03T11:16:00.498Z,35.32
2022-12-03T11:17:01.203Z,49.44
2022-12-03T11:18:00.437Z,41.67
2022-12-03T11:19:01.592Z,43.19
2022-12-03T11:20:00.459Z,41.56
2022-12-03T11:21:01.644Z,35.65
2022-12-03T11:22:00.521Z,34.32
2022-12-03T11:23:00.490Z,34.40
2022-12-03T11:24:00.600Z,36.65
2022-12-03T11:26:00.587Z,30.98
2022-12-03T11:27:00.711Z,31.32
2022-12-03T11:28:00.511Z,31.97
2022-12-03T11:29:00.451Z,34.55
2022-12-03T11:30:00.542Z,30.68
2022-12-03T11:31:00.477Z,29.54
2022-12-03T11:32:00.572Z,32.09
2022-12-03T11:33:00.506Z,27.43
2022-12-03T11:34:00.432Z,26.15
2022-12-03T11:35:00.477Z,25.06
2022-12-03T11:36:01.260Z,25.46
2022-12-03T11:37:01.833Z,21.73
2022-12-03T11:39:00.624Z,21.97
2022-12-03T11:40:01.003Z,23.09
2022-12-03T11:41:00.514Z,21.97
2022-12-03T11:42:00.435Z,21.57
2022-12-03T11:43:00.443Z,22.91
2022-12-03T11:44:00.382Z,22.27
2022-12-03T11:45:00.728Z,21.38
2022-12-03T11:46:04.201Z,23.37
2022-12-03T11:47:05.926Z,23.55
2022-12-03T11:48:00.461Z,23.25
2022-12-03T11:49:00.624Z,26.26
2022-12-03T11:50:00.914Z,18.15
2022-12-03T11:51:00.370Z,17.95
2022-12-03T11:52:00.519Z,17.83
2022-12-03T11:53:00.447Z,16.83
2022-12-03T11:54:00.680Z,17.35
2022-12-03T11:55:01.376Z,17.17
2022-12-03T11:56:04.352Z,15.77
2022-12-03T11:57:00.661Z,17.02
2022-12-03T11:58:00.665Z,17.36
2022-12-03T11:59:01.528Z,14.87
2022-12-03T12:00:00.860Z,15.67
2022-12-03T12:01:01.525Z,16.78
2022-12-03T12:02:00.506Z,15.94
2022-12-03T12:03:00.681Z,14.10
2022-12-03T12:04:00.530Z,16.49
2022-12-03T12:05:00.591Z,20.71
2022-12-03T12:06:00.459Z,25.76
2022-12-03T12:07:00.748Z,28.16
2022-12-03T12:08:00.825Z,27.69
2022-12-03T12:09:00.633Z,31.21
2022-12-03T12:10:00.556Z,23.43
2022-12-03T12:11:01.589Z,20.23
2022-12-03T12:12:00.761Z,28.34
2022-12-03T12:13:00.445Z,21.47
2022-12-03T12:14:00.556Z,18.38
2022-12-03T12:15:00.700Z,21.89
2022-12-03T12:16:00.442Z,17.90
2022-12-03T12:17:00.665Z,18.27
2022-12-03T12:18:00.494Z,16.83
2022-12-03T12:19:00.459Z,17.87
2022-12-03T12:20:00.878Z,17.29
2022-12-03T12:21:00.463Z,19.92
2022-12-03T12:22:03.389Z,18.11
2022-12-03T12:23:00.439Z,16.11
2022-12-03T12:24:00.386Z,22.37
2022-12-03T12:25:00.648Z,19.20
2022-12-03T12:26:00.449Z,17.05
2022-12-03T12:27:00.487Z,17.08
2022-12-03T12:28:01.811Z,17.22
2022-12-03T12:29:00.435Z,17.94
2022-12-03T12:30:00.469Z,18.60
2022-12-03T12:31:04.092Z,23.36
2022-12-03T12:32:01.600Z,20.15
2022-12-03T12:33:00.618Z,17.33
2022-12-03T12:34:00.457Z,17.41
2022-12-03T12:35:00.477Z,16.33
2022-12-03T12:36:01.475Z,17.09
2022-12-03T12:37:00.473Z,18.12
2022-12-03T12:39:00.532Z,15.52
2022-12-03T12:40:00.470Z,23.96
2022-12-03T12:41:00.529Z,21.12
2022-12-03T12:42:00.699Z,22.25
2022-12-03T12:43:00.664Z,23.39
2022-12-03T12:44:00.834Z,28.12
2022-12-03T12:45:00.421Z,20.82
2022-12-03T12:46:13.661Z,26.00
2022-12-03T12:47:00.682Z,30.69
2022-12-03T12:48:00.428Z,23.44
2022-12-03T12:49:00.404Z,16.79
2022-12-03T12:50:00.633Z,16.88
2022-12-03T12:51:00.567Z,20.21
2022-12-03T12:52:00.442Z,19.81
2022-12-03T12:53:00.590Z,20.69
2022-12-03T12:54:01.801Z,20.66
2022-12-03T12:55:04.946Z,17.57
2022-12-03T12:56:00.805Z,18.08
2022-12-03T12:57:01.572Z,16.67
2022-12-03T12:58:00.476Z,18.66
2022-12-03T12:59:00.485Z,16.41
2022-12-03T13:00:02.240Z,16.21
2022-12-03T13:01:01.158Z,16.88
2022-12-03T13:02:04.562Z,17.90
2022-12-03T13:03:00.837Z,19.73
2022-12-03T13:04:00.635Z,20.95
2022-12-03T13:05:01.710Z,23.52
2022-12-03T13:06:00.459Z,21.35
2022-12-03T13:07:00.474Z,21.17
2022-12-03T13:08:02.739Z,20.60
2022-12-03T13:09:00.496Z,22.29
2022-12-03T13:10:00.537Z,22.15
2022-12-03T13:11:00.458Z,22.63
2022-12-03T13:12:00.559Z,21.77
2022-12-03T13:13:00.512Z,22.74
2022-12-03T13:14:00.602Z,27.27